CheckWX is a tool to help pilots better visualize weather data.  It is not intended as a substitute for an official pre-flight weather briefing.

09:28:04 UTC

CYMO METAR
Moosonee Airport
Moosonee, Canada
Current

28 mins ago

CYMO 200900Z AUTO 22007KT 9SM FEW140 M17/M20 A3022 RMK SLP235
Observed
Feb-20 @ 09:00 UTC
Wind
  • 220° at 7 KTS
Visibility
14,484 meters
Flight Rules
VFR
Cloud Levels
  • Few at 14,000' AGL
Temperature
-17°C / 1°F
Dewpoint
-20°C / -4°F
Humidity
78%
Altimeter
30.22" Hg
Pressure
1023.5 hPa
Previous

1 hour ago

CYMO 200800Z AUTO 21009KT 9SM FEW190 M17/M20 A3025 RMK SLP247
Observed
Feb-20 @ 08:00 UTC
Wind
  • 210° at 9 KTS
Visibility
14,484 meters
Flight Rules
VFR
Cloud Levels
  • Few at 19,000' AGL
Temperature
-17°C / 1°F
Dewpoint
-20°C / -4°F
Humidity
78%
Altimeter
30.25" Hg
Pressure
1024.7 hPa
Previous

2 hours ago

CYMO 200700Z AUTO 22008KT 9SM BKN090 M16/M21 A3027 RMK SLP252
Observed
Feb-20 @ 07:00 UTC
Wind
  • 220° at 8 KTS
Visibility
14,484 meters
Flight Rules
VFR
Cloud Levels
  • Broken at 9,000' AGL
Temperature
-16°C / 3°F
Dewpoint
-21°C / -6°F
Humidity
66%
Altimeter
30.27" Hg
Pressure
1025.2 hPa